Time;durP1;ratioP1;P1;durP2;ratioP2;P2;SDS_P1;SDS_P2;PMS_P1;PMS_P2;Temp;Humidity;BMP_temperature;BMP_pressure;BME280_temperature;BME280_humidity;BME280_pressure;Samples;Min_cycle;Max_cycle;Signal;HPM_P1;HPM_P2
2022/12/13 00:00:17;;;;;;;41.27;16.17;;;-10.80;99.50;;;;;;4962699;28;20257;-58
2022/12/13 00:02:44;;;;;;;42.25;16.45;;;-10.80;99.40;;;;;;4963151;28;20281;-58
2022/12/13 00:05:10;;;;;;;39.50;17.17;;;-10.80;99.90;;;;;;4963572;28;20225;-56
2022/12/13 00:07:36;;;;;;;39.45;15.82;;;-10.80;99.90;;;;;;4969173;28;20655;-59
2022/12/13 00:10:02;;;;;;;33.40;14.93;;;-10.80;99.90;;;;;;4969900;28;20190;-57
2022/12/13 00:12:27;;;;;;;40.00;14.80;;;-10.80;99.90;;;;;;4962236;28;20202;-58
2022/12/13 00:14:53;;;;;;;42.10;16.30;;;-10.80;99.90;;;;;;4967205;28;20244;-57
2022/12/13 00:17:19;;;;;;;29.83;11.60;;;-10.80;99.90;;;;;;4967105;28;20216;-58
2022/12/13 00:19:46;;;;;;;29.17;11.80;;;-10.80;99.90;;;;;;4969774;28;20598;-58
2022/12/13 00:22:12;;;;;;;29.65;12.88;;;-10.70;99.90;;;;;;4969555;28;20209;-58
2022/12/13 00:24:37;;;;;;;31.87;13.77;;;-10.60;99.90;;;;;;4969241;28;20770;-57
2022/12/13 00:27:04;;;;;;;27.67;12.37;;;-10.60;99.90;;;;;;4970255;28;20467;-58
2022/12/13 00:29:29;;;;;;;28.75;11.23;;;-10.60;99.90;;;;;;4959369;28;20441;-58
2022/12/13 00:31:55;;;;;;;28.37;11.03;;;-10.50;99.90;;;;;;4970588;28;20725;-58
2022/12/13 00:34:21;;;;;;;39.63;14.40;;;-10.40;99.90;;;;;;4965136;28;20203;-58
2022/12/13 00:36:47;;;;;;;37.97;13.53;;;-10.30;99.90;;;;;;4970989;28;20337;-57
2022/12/13 00:39:15;;;;;;;26.75;13.07;;;-10.20;99.90;;;;;;4968746;28;20928;-57
2022/12/13 00:41:42;;;;;;;32.50;13.15;;;-10.20;99.90;;;;;;4970491;28;20305;-58
2022/12/13 00:44:10;;;;;;;31.42;13.60;;;-10.20;99.90;;;;;;4969089;28;20174;-59
2022/12/13 00:46:36;;;;;;;33.92;14.10;;;-10.20;99.90;;;;;;4971318;28;20205;-58
2022/12/13 00:49:02;;;;;;;37.25;13.48;;;-10.20;99.90;;;;;;4969199;28;20188;-58
2022/12/13 00:51:31;;;;;;;28.60;12.25;;;-10.20;99.80;;;;;;4970513;28;20685;-58
2022/12/13 00:53:57;;;;;;;40.67;14.00;;;-10.30;99.50;;;;;;4968667;28;20612;-58
2022/12/13 00:56:26;;;;;;;24.40;10.20;;;-10.30;99.30;;;;;;4970534;28;20178;-57
2022/12/13 00:58:52;;;;;;;42.13;15.77;;;-10.30;99.90;;;;;;4969179;28;20189;-58
2022/12/13 01:01:21;;;;;;;36.35;14.70;;;-10.30;99.90;;;;;;4971324;28;20667;-56
2022/12/13 01:03:47;;;;;;;35.90;14.90;;;-10.30;99.00;;;;;;4969084;28;20178;-59
2022/12/13 01:06:32;;;;;;;34.57;13.70;;;-10.40;97.80;;;;;;4967803;28;20236;-58
2022/12/13 01:08:58;;;;;;;31.95;13.52;;;-10.50;97.20;;;;;;4968446;28;20180;-57
2022/12/13 01:11:24;;;;;;;31.80;13.53;;;-10.60;98.30;;;;;;4970757;28;20754;-57
2022/12/13 01:13:49;;;;;;;39.23;14.57;;;-10.60;98.50;;;;;;4963544;28;20704;-58
2022/12/13 01:16:15;;;;;;;35.73;13.80;;;-10.60;98.50;;;;;;4966796;28;20207;-59
2022/12/13 01:18:41;;;;;;;35.47;14.23;;;-10.60;98.80;;;;;;4966662;28;20811;-57
2022/12/13 01:21:11;;;;;;;37.13;14.27;;;-10.60;99.30;;;;;;4968850;28;20171;-58
2022/12/13 01:23:36;;;;;;;33.53;14.02;;;-10.60;99.80;;;;;;4969117;28;20166;-57
2022/12/13 01:26:03;;;;;;;29.00;12.77;;;-10.60;99.90;;;;;;4963686;28;20213;-57
2022/12/13 01:28:30;;;;;;;31.17;13.07;;;-10.50;99.90;;;;;;4964043;28;20457;-56
2022/12/13 01:31:05;;;;;;;32.70;13.55;;;-10.50;99.90;;;;;;4970856;28;20254;-57
2022/12/13 01:33:31;;;;;;;28.55;11.63;;;-10.50;99.90;;;;;;4965348;28;20181;-57
2022/12/13 01:36:05;;;;;;;27.27;11.93;;;-10.40;99.90;;;;;;4965289;28;20301;-56
2022/12/13 01:38:32;;;;;;;33.17;14.02;;;-10.40;99.90;;;;;;4950980;28;20489;-58
2022/12/13 01:40:57;;;;;;;37.75;13.65;;;-10.40;99.90;;;;;;4965916;28;20186;-58
2022/12/13 01:43:27;;;;;;;24.10;12.90;;;-10.30;99.90;;;;;;4968920;28;20636;-57
2022/12/13 01:45:52;;;;;;;26.55;11.80;;;-10.30;99.90;;;;;;4969495;28;20187;-58
2022/12/13 01:48:23;;;;;;;28.57;12.77;;;-10.30;99.90;;;;;;4968030;28;20209;-57
2022/12/13 01:50:51;;;;;;;27.77;12.60;;;-10.30;99.90;;;;;;4965793;28;20179;-57
2022/12/13 01:53:21;;;;;;;28.58;12.25;;;-10.30;99.90;;;;;;4967847;28;20544;-56
2022/12/13 01:55:51;;;;;;;29.60;13.20;;;-10.30;99.90;;;;;;4970112;28;20337;-57
2022/12/13 01:58:18;;;;;;;33.58;12.80;;;-10.30;99.90;;;;;;4966853;28;20286;-57
2022/12/13 02:00:45;;;;;;;35.83;13.20;;;-10.30;99.90;;;;;;4962586;28;20178;-57
2022/12/13 02:03:11;;;;;;;32.30;12.50;;;-10.30;99.90;;;;;;4970092;28;20162;-57
2022/12/13 02:06:02;;;;;;;28.33;11.65;;;-10.30;99.90;;;;;;4967181;28;20202;-57
2022/12/13 02:08:28;;;;;;;25.58;11.50;;;-10.30;99.90;;;;;;4968894;28;20890;-57
2022/12/13 02:10:55;;;;;;;29.70;12.43;;;-10.30;99.90;;;;;;4967136;28;20194;-57
2022/12/13 02:13:21;;;;;;;24.30;11.57;;;-10.30;99.90;;;;;;4969012;28;20438;-57
2022/12/13 02:16:01;;;;;;;27.93;10.93;;;-10.30;99.90;;;;;;4967764;28;20807;-56
2022/12/13 02:18:36;;;;;;;22.42;9.55;;;-10.40;99.90;;;;;;4964636;28;20193;-56
2022/12/13 02:21:28;;;;;;;27.60;11.27;;;-10.40;99.90;;;;;;4964243;28;20224;-57
2022/12/13 02:24:46;;;;;;;22.23;9.93;;;-10.40;99.90;;;;;;4971778;28;20602;-58
2022/12/13 02:27:37;;;;;;;28.33;10.52;;;-10.30;99.90;;;;;;4945039;28;20202;-56
2022/12/13 02:30:26;;;;;;;30.27;9.65;;;-10.30;99.90;;;;;;4969782;28;20190;-57
2022/12/13 02:33:10;;;;;;;20.52;8.40;;;-10.30;99.90;;;;;;4970534;28;20174;-57
2022/12/13 02:35:43;;;;;;;16.75;7.40;;;-10.20;99.90;;;;;;4967252;28;20290;-58
2022/12/13 02:38:32;;;;;;;17.15;8.65;;;-10.10;99.90;;;;;;4971963;28;20197;-57
2022/12/13 02:41:12;;;;;;;19.35;7.53;;;-10.10;99.90;;;;;;4973072;28;20170;-57
2022/12/13 02:43:53;;;;;;;18.90;7.65;;;-10.00;99.90;;;;;;4968473;28;20174;-58
2022/12/13 02:46:23;;;;;;;12.02;6.70;;;-9.90;99.90;;;;;;4965742;28;20185;-58
2022/12/13 02:48:53;;;;;;;14.85;7.75;;;-9.90;99.90;;;;;;4969609;28;20175;-57
2022/12/13 02:51:20;;;;;;;17.15;7.57;;;-9.80;99.90;;;;;;4966369;28;20182;-57
2022/12/13 02:53:46;;;;;;;22.08;8.45;;;-9.80;99.90;;;;;;4972935;28;20241;-57
2022/12/13 02:56:13;;;;;;;13.03;7.17;;;-9.70;99.90;;;;;;4964926;28;20210;-56
2022/12/13 02:58:47;;;;;;;16.42;7.47;;;-9.60;99.90;;;;;;4971973;28;20430;-59
2022/12/13 03:01:34;;;;;;;14.15;6.90;;;-9.60;99.90;;;;;;4971450;28;20252;-57
2022/12/13 03:04:06;;;;;;;16.90;7.03;;;-9.40;99.90;;;;;;4964177;28;20175;-58
2022/12/13 03:06:47;;;;;;;21.23;7.72;;;-9.30;99.90;;;;;;4970378;28;20171;-57
2022/12/13 03:09:31;;;;;;;19.75;7.50;;;-9.30;99.90;;;;;;4958344;28;20651;-57
2022/12/13 03:15:20;;;;;;;14.50;6.97;;;-9.20;99.90;;;;;;4967592;28;20221;-57
2022/12/13 03:17:55;;;;;;;18.15;8.52;;;-9.10;99.90;;;;;;4965532;28;20763;-57
2022/12/13 03:20:23;;;;;;;12.45;5.85;;;-9.10;99.90;;;;;;4969990;28;20195;-59
2022/12/13 03:22:51;;;;;;;12.35;6.70;;;-9.00;99.90;;;;;;4963317;28;20253;-57
2022/12/13 03:25:17;;;;;;;15.25;6.55;;;-9.00;99.90;;;;;;4969575;28;20204;-58
2022/12/13 03:27:43;;;;;;;10.88;5.95;;;-8.90;99.90;;;;;;4969404;28;20745;-57
2022/12/13 03:30:09;;;;;;;11.40;6.10;;;-8.90;99.90;;;;;;4964190;28;20202;-57
2022/12/13 03:32:35;;;;;;;13.32;6.13;;;-8.80;99.90;;;;;;4960990;28;20938;-57
2022/12/13 03:35:00;;;;;;;12.37;5.50;;;-8.80;99.90;;;;;;4969658;28;20206;-57
2022/12/13 03:37:26;;;;;;;13.03;6.43;;;-8.80;99.90;;;;;;4961882;28;20281;-57
2022/12/13 03:39:52;;;;;;;13.70;6.13;;;-8.70;99.90;;;;;;4965518;28;20666;-58
2022/12/13 03:42:17;;;;;;;13.03;6.80;;;-8.70;99.90;;;;;;4970730;28;20608;-58
2022/12/13 03:44:43;;;;;;;11.97;6.07;;;-8.60;99.90;;;;;;4968299;28;20478;-57
2022/12/13 03:47:09;;;;;;;12.57;5.60;;;-8.60;99.90;;;;;;4972004;28;20979;-58
2022/12/13 03:49:34;;;;;;;16.67;6.37;;;-8.60;99.90;;;;;;4968996;28;20268;-58
2022/12/13 03:52:00;;;;;;;10.23;5.87;;;-8.60;99.90;;;;;;4965307;28;20664;-59
2022/12/13 03:54:25;;;;;;;10.43;5.07;;;-8.60;99.90;;;;;;4952486;28;20194;-57
2022/12/13 03:56:51;;;;;;;10.90;5.90;;;-8.60;99.90;;;;;;4963299;28;20199;-57
2022/12/13 03:59:17;;;;;;;11.00;6.03;;;-8.50;99.90;;;;;;4964371;28;20186;-57
2022/12/13 04:01:42;;;;;;;9.63;5.80;;;-8.50;99.90;;;;;;4965524;28;20689;-57
2022/12/13 04:04:08;;;;;;;13.63;6.20;;;-8.50;99.90;;;;;;4965001;28;20186;-58
2022/12/13 04:06:34;;;;;;;8.87;5.17;;;-8.40;99.90;;;;;;4971404;28;20620;-58
2022/12/13 04:08:59;;;;;;;12.37;5.50;;;-8.30;99.90;;;;;;4971242;28;20174;-58
2022/12/13 04:14:10;;;;;;;7.97;4.97;;;-8.30;99.90;;;;;;4967476;28;20260;-58
2022/12/13 04:16:36;;;;;;;18.73;6.03;;;-8.20;99.90;;;;;;4970138;28;20225;-58
2022/12/13 04:19:02;;;;;;;12.90;6.00;;;-8.10;99.90;;;;;;4973338;28;20204;-58
2022/12/13 04:21:27;;;;;;;7.60;5.30;;;-8.10;99.90;;;;;;4968868;28;20194;-57
2022/12/13 04:23:53;;;;;;;13.03;5.53;;;-8.00;99.90;;;;;;4974565;28;20701;-56
2022/12/13 04:26:18;;;;;;;12.60;5.87;;;-8.00;99.90;;;;;;4977829;28;20187;-58
2022/12/13 04:28:44;;;;;;;11.47;5.77;;;-8.00;99.90;;;;;;4964387;28;20201;-57
2022/12/13 04:31:10;;;;;;;9.53;5.50;;;-8.00;99.90;;;;;;4967648;28;20262;-57
2022/12/13 04:33:35;;;;;;;12.00;5.17;;;-8.00;99.90;;;;;;4971456;28;20171;-57
2022/12/13 04:36:01;;;;;;;7.27;4.73;;;-8.00;99.90;;;;;;4969524;28;20185;-57
2022/12/13 04:38:27;;;;;;;13.27;6.40;;;-8.00;99.90;;;;;;4970018;28;20200;-57
2022/12/13 04:40:53;;;;;;;10.77;5.70;;;-8.00;99.90;;;;;;4966957;28;20178;-57
2022/12/13 04:43:18;;;;;;;12.70;5.83;;;-8.00;99.90;;;;;;4968893;28;20174;-57
2022/12/13 04:45:44;;;;;;;11.57;5.73;;;-8.00;99.90;;;;;;4969194;28;20174;-57
2022/12/13 04:48:09;;;;;;;10.63;5.47;;;-7.90;99.90;;;;;;4967944;28;20857;-57
2022/12/13 04:50:35;;;;;;;11.30;5.77;;;-7.90;99.90;;;;;;4967071;28;20765;-57
2022/12/13 04:53:01;;;;;;;13.55;5.20;;;-7.90;99.90;;;;;;4966554;28;20186;-57
2022/12/13 04:55:27;;;;;;;12.47;5.70;;;-8.00;99.90;;;;;;4963614;28;20203;-55
2022/12/13 04:57:52;;;;;;;13.80;6.70;;;-8.00;99.90;;;;;;4962156;28;20198;-58
2022/12/13 05:00:20;;;;;;;11.23;6.10;;;-7.90;99.90;;;;;;4963543;28;20305;-58
2022/12/13 05:02:46;;;;;;;13.20;6.05;;;-7.90;99.90;;;;;;4965706;28;20237;-55
2022/12/13 05:05:12;;;;;;;10.50;5.87;;;-7.90;99.90;;;;;;4964863;28;20785;-54
2022/12/13 05:07:38;;;;;;;12.80;6.40;;;-7.90;99.90;;;;;;4963342;28;20481;-51
2022/12/13 05:10:04;;;;;;;20.60;5.90;;;-7.90;99.90;;;;;;4961431;28;20554;-54
2022/12/13 05:12:29;;;;;;;15.25;6.03;;;-7.90;99.90;;;;;;4953890;28;20434;-57
2022/12/13 05:14:55;;;;;;;8.93;4.83;;;-7.90;99.90;;;;;;4959764;28;20260;-55
2022/12/13 05:17:21;;;;;;;9.43;5.40;;;-7.90;99.90;;;;;;4956035;28;20256;-55
2022/12/13 05:19:46;;;;;;;8.53;5.40;;;-7.90;99.90;;;;;;4957365;28;20182;-55
2022/12/13 05:22:14;;;;;;;6.60;4.70;;;-8.00;99.90;;;;;;4958088;28;20489;-54
2022/12/13 05:24:41;;;;;;;9.57;5.82;;;-8.00;99.90;;;;;;4962308;28;20186;-56
2022/12/13 05:27:07;;;;;;;9.57;4.97;;;-8.00;99.90;;;;;;4959663;28;20193;-55
2022/12/13 05:29:33;;;;;;;6.93;4.22;;;-8.00;99.90;;;;;;4963923;28;20265;-55
2022/12/13 05:31:59;;;;;;;8.60;4.97;;;-8.00;99.90;;;;;;4965321;28;20344;-54
2022/12/13 05:34:24;;;;;;;8.27;4.97;;;-8.00;99.90;;;;;;5016037;23;20260;-55
2022/12/13 05:36:50;;;;;;;8.67;5.00;;;-8.00;99.90;;;;;;5003618;28;20165;-57
2022/12/13 05:39:15;;;;;;;10.97;5.67;;;-8.10;99.90;;;;;;5004898;28;20172;-57
2022/12/13 05:41:41;;;;;;;7.80;4.20;;;-8.10;99.90;;;;;;5008236;28;20176;-56
2022/12/13 05:44:09;;;;;;;9.83;5.20;;;-8.10;99.90;;;;;;5002923;28;20592;-54
2022/12/13 05:46:35;;;;;;;13.18;5.30;;;-8.10;99.90;;;;;;5002789;28;20405;-56
2022/12/13 05:49:01;;;;;;;10.05;4.93;;;-8.10;99.90;;;;;;5003529;28;20176;-59
2022/12/13 05:51:26;;;;;;;7.80;5.50;;;-8.10;99.90;;;;;;5005722;28;20177;-57
2022/12/13 05:53:52;;;;;;;7.93;4.93;;;-8.10;99.90;;;;;;4995489;28;20456;-60
2022/12/13 05:56:18;;;;;;;10.50;5.43;;;-8.10;99.90;;;;;;5002522;28;20224;-56
2022/12/13 05:58:44;;;;;;;12.93;5.70;;;-8.10;99.90;;;;;;5000839;28;20261;-56
2022/12/13 06:01:12;;;;;;;9.80;5.33;;;-8.10;99.90;;;;;;5008144;28;20194;-57
2022/12/13 06:03:38;;;;;;;14.02;5.43;;;-8.10;99.90;;;;;;5004256;28;20220;-60
2022/12/13 06:06:06;;;;;;;6.50;4.50;;;-8.10;99.90;;;;;;5009095;28;20181;-55
2022/12/13 06:08:32;;;;;;;13.10;5.80;;;-8.10;99.90;;;;;;5005061;28;20185;-57
2022/12/13 06:10:59;;;;;;;12.50;4.90;;;-8.10;99.90;;;;;;5002328;28;20181;-56
2022/12/13 06:13:25;;;;;;;8.45;5.05;;;-8.10;99.90;;;;;;5000732;28;20737;-56
2022/12/13 06:15:51;;;;;;;9.00;5.33;;;-8.10;99.90;;;;;;5002901;28;20204;-54
2022/12/13 06:18:17;;;;;;;9.10;5.90;;;-8.10;99.90;;;;;;5002814;28;20180;-55
2022/12/13 06:20:42;;;;;;;10.97;5.30;;;-8.10;99.90;;;;;;5003388;28;20423;-57
2022/12/13 06:23:08;;;;;;;12.17;7.13;;;-8.10;99.90;;;;;;4995587;28;20208;-54
2022/12/13 06:25:35;;;;;;;13.80;7.87;;;-8.10;99.90;;;;;;4996246;28;20185;-62
2022/12/13 06:28:01;;;;;;;15.90;7.15;;;-8.20;99.90;;;;;;5003640;28;20181;-54
2022/12/13 06:30:27;;;;;;;10.60;5.53;;;-8.20;99.90;;;;;;5001280;28;20189;-58
2022/12/13 06:32:54;;;;;;;8.98;5.15;;;-8.20;99.90;;;;;;5007065;28;20272;-55
2022/12/13 06:35:19;;;;;;;12.18;5.88;;;-8.20;99.90;;;;;;5005884;28;20203;-57
2022/12/13 06:37:45;;;;;;;10.20;5.53;;;-8.20;99.90;;;;;;5010772;28;20169;-55
2022/12/13 06:40:11;;;;;;;8.70;5.17;;;-8.20;99.90;;;;;;5002204;28;20701;-61
2022/12/13 06:42:36;;;;;;;10.48;6.13;;;-8.20;99.90;;;;;;5003977;28;20193;-55
2022/12/13 06:45:02;;;;;;;9.00;6.37;;;-8.10;99.90;;;;;;5002549;28;20189;-54
2022/12/13 06:47:29;;;;;;;13.03;6.37;;;-8.10;99.90;;;;;;5005103;28;20191;-54
2022/12/13 06:49:54;;;;;;;11.50;5.80;;;-8.10;99.90;;;;;;5001389;28;20939;-56
2022/12/13 06:52:20;;;;;;;11.13;5.57;;;-8.10;99.90;;;;;;5001439;28;20208;-55
2022/12/13 06:54:45;;;;;;;9.00;5.60;;;-8.10;99.90;;;;;;5001886;28;20212;-58
2022/12/13 06:57:11;;;;;;;15.37;6.23;;;-8.00;99.90;;;;;;5004082;28;21735;-54
2022/12/13 06:59:37;;;;;;;10.93;5.90;;;-8.00;99.90;;;;;;4994658;28;20325;-57
2022/12/13 07:02:03;;;;;;;11.53;5.70;;;-8.00;99.90;;;;;;4997022;28;20402;-56
2022/12/13 07:04:28;;;;;;;11.50;5.50;;;-8.00;99.90;;;;;;4995855;28;20209;-55
2022/12/13 07:06:54;;;;;;;9.00;4.97;;;-8.00;99.90;;;;;;4999817;28;20214;-56
2022/12/13 07:09:20;;;;;;;10.30;4.90;;;-8.00;99.90;;;;;;4998785;28;20184;-55
2022/12/13 07:11:45;;;;;;;10.20;5.43;;;-7.90;99.90;;;;;;5006874;28;20177;-58
2022/12/13 07:14:11;;;;;;;15.47;6.87;;;-7.90;99.90;;;;;;4997194;28;20232;-55
2022/12/13 07:16:36;;;;;;;10.47;5.63;;;-7.90;99.90;;;;;;5002641;28;20658;-55
2022/12/13 07:19:03;;;;;;;11.60;6.80;;;-7.90;99.90;;;;;;5006587;28;20186;-54
2022/12/13 07:21:29;;;;;;;12.23;5.85;;;-7.90;99.90;;;;;;5000519;28;20833;-54
2022/12/13 07:23:55;;;;;;;11.35;6.05;;;-7.90;99.90;;;;;;5002421;28;20196;-53
2022/12/13 07:26:21;;;;;;;13.03;6.77;;;-7.90;99.90;;;;;;5000274;28;20179;-52
2022/12/13 07:28:46;;;;;;;14.17;6.73;;;-7.90;99.90;;;;;;5006535;28;20192;-56
2022/12/13 07:31:13;;;;;;;9.30;5.27;;;-7.90;99.90;;;;;;5006166;28;20177;-56
2022/12/13 07:33:39;;;;;;;13.80;6.22;;;-7.80;99.90;;;;;;4998302;28;20593;-55
2022/12/13 07:36:13;;;;;;;13.43;7.00;;;-7.80;99.90;;;;;;5004767;28;20745;-54
2022/12/13 07:38:39;;;;;;;12.32;6.25;;;-7.80;99.90;;;;;;4993773;28;20236;-54
2022/12/13 07:41:05;;;;;;;11.60;5.93;;;-7.70;99.90;;;;;;5008535;28;20173;-55
2022/12/13 07:43:32;;;;;;;8.45;5.80;;;-7.70;99.90;;;;;;5001725;28;20521;-54
2022/12/13 07:45:59;;;;;;;11.52;6.25;;;-7.70;99.90;;;;;;5007622;28;20187;-52
2022/12/13 07:48:25;;;;;;;12.40;7.43;;;-7.60;99.90;;;;;;5007594;28;20176;-54
2022/12/13 07:50:52;;;;;;;12.68;7.13;;;-7.60;99.90;;;;;;5004975;28;20188;-55
2022/12/13 07:53:18;;;;;;;12.48;6.80;;;-7.50;99.90;;;;;;5008087;28;20763;-55
2022/12/13 07:55:43;;;;;;;9.00;5.80;;;-7.50;99.90;;;;;;5001431;28;20200;-53
2022/12/13 07:58:12;;;;;;;10.47;6.10;;;-7.50;99.90;;;;;;5006449;28;20199;-52
2022/12/13 08:00:39;;;;;;;13.85;6.15;;;-7.50;99.90;;;;;;5006212;28;20658;-54
2022/12/13 08:03:05;;;;;;;10.05;6.57;;;-7.40;99.90;;;;;;5006854;28;20270;-54
2022/12/13 08:05:32;;;;;;;13.43;6.30;;;-7.40;99.90;;;;;;5001188;28;20651;-54
2022/12/13 08:07:59;;;;;;;14.05;7.15;;;-7.40;99.90;;;;;;5008028;28;20173;-54
2022/12/13 08:10:25;;;;;;;12.30;6.05;;;-7.30;99.90;;;;;;5005139;28;20173;-54
2022/12/13 08:12:51;;;;;;;9.95;6.15;;;-7.30;99.90;;;;;;5004767;28;20186;-55
2022/12/13 08:15:17;;;;;;;12.70;7.90;;;-7.20;99.90;;;;;;5004406;28;20193;-53
2022/12/13 08:17:43;;;;;;;10.23;6.00;;;-7.20;99.90;;;;;;4996607;28;20235;-53
2022/12/13 08:20:09;;;;;;;8.57;5.93;;;-7.10;99.90;;;;;;5000692;28;20182;-53
2022/12/13 08:22:34;;;;;;;15.50;7.23;;;-7.10;99.90;;;;;;5005160;28;20182;-53
2022/12/13 08:25:01;;;;;;;11.10;6.97;;;-7.00;99.90;;;;;;5005096;28;20458;-53
2022/12/13 08:27:27;;;;;;;14.85;6.88;;;-7.00;99.90;;;;;;5002202;28;20185;-55
2022/12/13 08:29:52;;;;;;;12.93;6.40;;;-6.90;99.90;;;;;;5002426;28;20776;-54
2022/12/13 08:32:18;;;;;;;10.47;6.03;;;-6.80;99.90;;;;;;5004564;28;20188;-54
2022/12/13 08:34:44;;;;;;;11.97;6.47;;;-6.80;99.90;;;;;;5002974;28;21497;-52
2022/12/13 08:37:11;;;;;;;11.50;6.18;;;-6.70;99.90;;;;;;5006332;28;20197;-53
2022/12/13 08:39:38;;;;;;;13.48;6.68;;;-6.70;99.90;;;;;;5003509;28;20257;-55
2022/12/13 08:42:15;;;;;;;9.98;5.70;;;-6.60;99.90;;;;;;5001322;28;20174;-57
2022/12/13 08:44:41;;;;;;;13.70;6.20;;;-6.60;99.90;;;;;;5005458;28;20196;-56
2022/12/13 08:47:06;;;;;;;7.93;5.13;;;-6.50;99.90;;;;;;5001002;28;20506;-54
2022/12/13 08:49:32;;;;;;;10.13;5.80;;;-6.40;99.90;;;;;;5007924;28;20185;-54
2022/12/13 08:51:58;;;;;;;11.00;6.10;;;-6.30;99.90;;;;;;5007644;28;20389;-55
2022/12/13 08:54:24;;;;;;;17.00;6.97;;;-6.20;99.90;;;;;;5004281;28;20208;-54
2022/12/13 08:56:50;;;;;;;13.67;6.33;;;-6.20;99.90;;;;;;5006313;28;20917;-54
2022/12/13 08:59:15;;;;;;;10.43;6.00;;;-6.10;99.90;;;;;;5005371;28;20427;-56
2022/12/13 09:01:41;;;;;;;9.47;5.93;;;-6.00;99.90;;;;;;5003293;28;20201;-56
2022/12/13 09:04:07;;;;;;;10.73;6.10;;;-5.90;99.90;;;;;;5001730;28;20205;-61
2022/12/13 09:06:32;;;;;;;12.60;6.53;;;-5.80;99.90;;;;;;5001505;28;20181;-54
2022/12/13 09:08:58;;;;;;;9.63;6.03;;;-5.70;99.90;;;;;;5005366;28;20185;-53
2022/12/13 09:11:24;;;;;;;9.50;5.00;;;-5.70;99.90;;;;;;5003607;28;21171;-54
2022/12/13 09:13:50;;;;;;;14.40;6.10;;;-5.60;99.90;;;;;;5004485;28;20687;-54
2022/12/13 09:16:18;;;;;;;11.10;6.10;;;-5.50;99.90;;;;;;5003638;28;20499;-55
2022/12/13 09:18:45;;;;;;;11.63;6.30;;;-5.50;99.90;;;;;;5002111;28;20166;-57
2022/12/13 09:21:13;;;;;;;14.30;6.47;;;-5.40;99.90;;;;;;4997855;28;20571;-55
2022/12/13 09:23:43;;;;;;;10.60;5.70;;;-5.30;99.90;;;;;;5000645;28;21082;-55
2022/12/13 09:26:11;;;;;;;10.97;5.40;;;-5.30;99.90;;;;;;5001939;28;20435;-55
2022/12/13 09:28:37;;;;;;;10.30;5.50;;;-5.20;99.30;;;;;;5000676;28;20432;-53
2022/12/13 09:31:08;;;;;;;8.20;5.40;;;-5.20;99.20;;;;;;5000358;28;20441;-55
2022/12/13 09:33:34;;;;;;;11.30;5.00;;;-5.10;98.80;;;;;;5003942;28;20556;-53
2022/12/13 09:36:06;;;;;;;9.50;5.73;;;-5.00;98.70;;;;;;5002898;28;20551;-53
2022/12/13 09:38:33;;;;;;;8.80;5.70;;;-5.00;98.80;;;;;;4998855;28;20434;-54
2022/12/13 09:41:05;;;;;;;10.80;5.37;;;-4.90;98.30;;;;;;4999584;28;20463;-55
2022/12/13 09:43:33;;;;;;;10.90;5.67;;;-4.90;98.00;;;;;;5004845;28;20448;-54
2022/12/13 09:46:03;;;;;;;7.20;5.13;;;-4.80;98.00;;;;;;5003050;28;20971;-53
2022/12/13 09:48:29;;;;;;;7.20;4.70;;;-4.80;96.70;;;;;;5008122;28;20433;-54
2022/12/13 09:50:54;;;;;;;8.70;5.20;;;-4.70;97.10;;;;;;5002165;28;20472;-54
2022/12/13 09:53:20;;;;;;;9.30;4.90;;;-4.70;97.00;;;;;;5004595;28;20458;-58
2022/12/13 09:55:50;;;;;;;10.57;5.73;;;-4.60;96.50;;;;;;4998234;28;20215;-55
2022/12/13 09:58:29;;;;;;;9.67;5.37;;;-4.60;96.90;;;;;;4999916;28;20166;-55
2022/12/13 10:00:55;;;;;;;11.27;5.00;;;-4.50;94.70;;;;;;4995452;28;20441;-54
2022/12/13 10:03:23;;;;;;;13.30;5.83;;;-4.50;95.20;;;;;;5000505;28;20519;-55
2022/12/13 10:06:06;;;;;;;13.03;5.60;;;-4.40;95.20;;;;;;5002651;28;20432;-55
2022/12/13 10:08:37;;;;;;;8.40;5.07;;;-4.40;95.00;;;;;;4997940;28;20448;-55
2022/12/13 10:11:03;;;;;;;6.83;4.80;;;-4.40;94.20;;;;;;5003387;28;20433;-55
2022/12/13 10:13:40;;;;;;;11.27;6.03;;;-4.30;93.50;;;;;;5002967;28;20802;-57
2022/12/13 10:16:21;;;;;;;11.07;4.97;;;-4.30;94.00;;;;;;5000201;28;20523;-53
2022/12/13 10:18:47;;;;;;;9.30;5.50;;;-4.20;93.20;;;;;;5000479;28;20416;-54
2022/12/13 10:21:19;;;;;;;10.27;5.60;;;-4.10;92.70;;;;;;4999029;28;20452;-55
2022/12/13 10:23:45;;;;;;;8.00;4.87;;;-4.10;92.40;;;;;;5001527;28;20203;-57
2022/12/13 10:26:12;;;;;;;10.73;5.60;;;-4.00;91.70;;;;;;5000400;28;20447;-53
2022/12/13 10:28:39;;;;;;;10.03;5.70;;;-3.90;91.50;;;;;;4994893;28;20576;-53
2022/12/13 10:31:06;;;;;;;8.93;5.10;;;-3.80;92.00;;;;;;4994661;28;20499;-51
2022/12/13 10:33:37;;;;;;;12.83;5.10;;;-3.70;91.50;;;;;;4998678;28;20548;-52
2022/12/13 10:36:28;;;;;;;8.60;5.07;;;-3.60;90.30;;;;;;5003531;28;20491;-56
2022/12/13 10:38:54;;;;;;;5.77;4.70;;;-3.50;90.20;;;;;;5001253;28;20421;-50
2022/12/13 10:41:41;;;;;;;8.00;4.90;;;-3.40;86.00;;;;;;5007546;28;20507;-56
2022/12/13 10:44:18;;;;;;;6.70;4.30;;;-3.30;86.00;;;;;;5004080;28;20543;-53
2022/12/13 10:47:09;;;;;;;10.90;5.87;;;-3.20;84.20;;;;;;5001522;28;20455;-55
2022/12/13 10:49:40;;;;;;;9.30;4.67;;;-3.10;82.00;;;;;;5011210;28;20922;-54
2022/12/13 10:52:19;;;;;;;7.80;4.50;;;-3.00;80.40;;;;;;5003350;28;20447;-52
2022/12/13 10:54:47;;;;;;;10.40;5.47;;;-3.00;79.80;;;;;;5000715;28;20820;-53
2022/12/13 10:57:13;;;;;;;7.33;4.70;;;-2.90;78.80;;;;;;5002321;28;20442;-53
2022/12/13 10:59:39;;;;;;;9.60;4.70;;;-2.90;78.00;;;;;;5005884;28;20452;-53
2022/12/13 11:02:34;;;;;;;9.20;4.60;;;-3.00;76.10;;;;;;5004586;28;20428;-53
2022/12/13 11:05:32;;;;;;;8.20;4.90;;;-3.00;78.50;;;;;;5001124;28;20879;-53
2022/12/13 11:08:12;;;;;;;8.17;4.30;;;-3.00;77.70;;;;;;5000381;28;20507;-53
2022/12/13 11:10:38;;;;;;;6.83;5.00;;;-2.90;77.90;;;;;;4998977;28;20994;-52
2022/12/13 11:13:06;;;;;;;9.67;5.20;;;-2.90;77.70;;;;;;5004761;28;20441;-51
2022/12/13 11:15:35;;;;;;;8.60;4.37;;;-2.80;76.60;;;;;;4998042;28;20469;-54
2022/12/13 11:18:07;;;;;;;7.77;4.87;;;-2.70;75.40;;;;;;5003650;28;20432;-54
2022/12/13 11:20:35;;;;;;;8.43;4.77;;;-2.70;73.50;;;;;;4999710;28;20429;-51
2022/12/13 11:23:33;;;;;;;12.73;4.83;;;-2.70;72.20;;;;;;5003588;28;20972;-53
2022/12/13 11:26:04;;;;;;;8.23;4.60;;;-2.60;70.30;;;;;;4965277;28;21183;-52
2022/12/13 11:28:42;;;;;;;8.70;4.30;;;-2.60;72.00;;;;;;4998496;28;20543;-51
2022/12/13 11:31:24;;;;;;;9.63;4.87;;;-2.60;71.00;;;;;;4998087;28;20449;-56
2022/12/13 11:34:19;;;;;;;6.80;4.07;;;-2.50;71.30;;;;;;5001444;28;20501;-55
2022/12/13 11:36:57;;;;;;;7.10;4.43;;;-2.40;70.90;;;;;;4986603;28;20441;-53
2022/12/13 11:39:47;;;;;;;14.30;4.50;;;-2.40;70.80;;;;;;4997457;28;20467;-53
2022/12/13 11:42:42;;;;;;;7.07;4.03;;;-2.30;69.20;;;;;;5005421;28;20429;-52
2022/12/13 11:45:23;;;;;;;8.93;4.53;;;-2.30;69.30;;;;;;4995000;28;20454;-51
2022/12/13 11:48:00;;;;;;;7.20;4.73;;;-2.20;75.70;;;;;;5001595;28;20424;-52
2022/12/13 11:50:35;;;;;;;8.13;4.33;;;-2.10;74.80;;;;;;5008967;22;20815;-56
2022/12/13 11:53:34;;;;;;;4.80;3.70;;;-2.10;71.50;;;;;;4986814;28;20493;-57
2022/12/13 11:56:11;;;;;;;6.57;4.20;;;-2.10;69.10;;;;;;4979174;28;20461;-57
2022/12/13 11:58:53;;;;;;;11.30;4.73;;;-2.10;67.00;;;;;;4984196;28;20892;-57
2022/12/13 12:01:26;;;;;;;7.00;4.17;;;-2.10;67.00;;;;;;4984988;28;20461;-57
2022/12/13 12:04:12;;;;;;;10.30;4.07;;;-2.10;68.10;;;;;;4979437;28;20440;-57
2022/12/13 12:06:46;;;;;;;6.90;4.17;;;-2.10;68.20;;;;;;4981995;28;20438;-56
2022/12/13 12:09:15;;;;;;;5.83;3.70;;;-2.00;68.20;;;;;;4983559;28;20517;-58
2022/12/13 12:12:01;;;;;;;7.73;4.00;;;-2.00;67.00;;;;;;4985038;28;20489;-56
2022/12/13 12:14:45;;;;;;;6.00;4.07;;;-1.90;66.70;;;;;;4981865;28;20998;-56
2022/12/13 12:17:13;;;;;;;6.83;4.30;;;-1.90;69.50;;;;;;4983359;28;20513;-57
2022/12/13 12:19:42;;;;;;;6.10;3.50;;;-1.90;67.50;;;;;;4983554;28;20487;-56
2022/12/13 12:22:39;;;;;;;7.13;4.50;;;-1.90;67.00;;;;;;4985775;28;20441;-56
2022/12/13 12:25:46;;;;;;;8.10;4.20;;;-1.90;66.30;;;;;;4982794;28;20437;-57
2022/12/13 12:28:33;;;;;;;6.57;3.77;;;-1.80;64.30;;;;;;4981745;28;20434;-57
2022/12/13 12:31:16;;;;;;;6.30;4.20;;;-1.80;64.10;;;;;;4977770;28;20462;-57
2022/12/13 12:34:01;;;;;;;7.50;3.87;;;;;;;;;;4982993;28;20483;-57
2022/12/13 12:36:27;;;;;;;8.53;4.40;;;-1.80;64.30;;;;;;4984916;28;20504;-56
2022/12/13 12:39:13;;;;;;;5.23;3.77;;;-1.80;64.60;;;;;;4982429;28;20462;-57
2022/12/13 12:41:57;;;;;;;8.00;4.03;;;-1.80;64.00;;;;;;4982061;28;20194;-57
2022/12/13 12:44:38;;;;;;;6.13;3.60;;;-1.80;64.00;;;;;;4980666;28;20433;-57
2022/12/13 12:47:25;;;;;;;9.30;4.10;;;-1.80;62.90;;;;;;4973797;28;20453;-56
2022/12/13 12:49:54;;;;;;;9.13;4.37;;;-1.80;63.60;;;;;;4974935;28;20472;-55
2022/12/13 12:52:28;;;;;;;8.37;5.43;;;-1.80;63.20;;;;;;4980407;28;20806;-56
2022/12/13 12:55:02;;;;;;;6.43;4.17;;;-1.80;63.30;;;;;;4986527;28;20457;-54